<?xml version="1.0" encoding="UTF-8" standalone="no" ?>
<gpx xmlns="http://www.topografix.com/GPX/1/1" xmlns:xsi="http://www.w3.org/2001/XMLSchema-instance" xsi:schemaLocation="http://www.topografix.com/GPX/1/1 http://www.topografix.com/GPX/1/1/gpx.xsd" version="1.1" creator="VisuGPX - https://www.visugpx.com">
  <metadata>
    <name>La Cresse classique</name>
    <desc><![CDATA[

]]></desc>
  </metadata>
  <trk>
    <name><![CDATA[La Cresse classique]]></name>
    <extensions>
      <line xmlns="http://www.topografix.com/GPX/gpx_style/0/2">
        <color>0000FF</color>
        <width>4</width>
          <extensions>
            <sens>1</sens>
          </extensions>
      </line>
    </extensions>
    <trkseg>
      <trkpt lat="44.15528" lon="3.14873">
        <ele>768.40002441406</ele>
        <time>2013-04-21T10:12:51Z</time>
      </trkpt>
      <trkpt lat="44.15532" lon="3.1487">
        <ele>769</ele>
        <time>2013-04-21T10:13:27Z</time>
      </trkpt>
      <trkpt lat="44.15536" lon="3.14868">
        <ele>769</ele>
        <time>2013-04-21T10:13:30Z</time>
      </trkpt>
      <trkpt lat="44.15543" lon="3.14868">
        <ele>769</ele>
        <time>2013-04-21T10:13:34Z</time>
      </trkpt>
      <trkpt lat="44.15548" lon="3.14869">
        <ele>768.59997558594</ele>
        <time>2013-04-21T10:13:37Z</time>
      </trkpt>
      <trkpt lat="44.15552" lon="3.14868">
        <ele>767.59997558594</ele>
        <time>2013-04-21T10:13:39Z</time>
      </trkpt>
      <trkpt lat="44.15556" lon="3.14865">
        <ele>766.80004882812</ele>
        <time>2013-04-21T10:13:41Z</time>
      </trkpt>
      <trkpt lat="44.15561" lon="3.14856">
        <ele>766.80004882812</ele>
        <time>2013-04-21T10:13:45Z</time>
      </trkpt>
      <trkpt lat="44.15562" lon="3.14841">
        <ele>766.80004882812</ele>
        <time>2013-04-21T10:13:51Z</time>
      </trkpt>
      <trkpt lat="44.15561" lon="3.14834">
        <ele>766.80004882812</ele>
        <time>2013-04-21T10:13:56Z</time>
      </trkpt>
      <trkpt lat="44.15561" lon="3.14815">
        <ele>766.80004882812</ele>
        <time>2013-04-21T10:14:00Z</time>
      </trkpt>
      <trkpt lat="44.1556" lon="3.14806">
        <ele>766.40002441406</ele>
        <time>2013-04-21T10:14:02Z</time>
      </trkpt>
      <trkpt lat="44.15561" lon="3.14799">
        <ele>766</ele>
        <time>2013-04-21T10:14:03Z</time>
      </trkpt>
      <trkpt lat="44.15563" lon="3.14794">
        <ele>765.59997558594</ele>
        <time>2013-04-21T10:14:04Z</time>
      </trkpt>
      <trkpt lat="44.15566" lon="3.14789">
        <ele>765.19995117188</ele>
        <time>2013-04-21T10:14:05Z</time>
      </trkpt>
      <trkpt lat="44.15569" lon="3.14783">
        <ele>764.80004882812</ele>
        <time>2013-04-21T10:14:06Z</time>
      </trkpt>
      <trkpt lat="44.15575" lon="3.14772">
        <ele>764.80004882812</ele>
        <time>2013-04-21T10:14:08Z</time>
      </trkpt>
      <trkpt lat="44.15582" lon="3.1476">
        <ele>764.80004882812</ele>
        <time>2013-04-21T10:14:10Z</time>
      </trkpt>
      <trkpt lat="44.15586" lon="3.14745">
        <ele>764.80004882812</ele>
        <time>2013-04-21T10:14:12Z</time>
      </trkpt>
      <trkpt lat="44.15589" lon="3.14739">
        <ele>764.19995117188</ele>
        <time>2013-04-21T10:14:13Z</time>
      </trkpt>
      <trkpt lat="44.15593" lon="3.14735">
        <ele>763.80004882812</ele>
        <time>2013-04-21T10:14:14Z</time>
      </trkpt>
      <trkpt lat="44.15599" lon="3.14736">
        <ele>763.40002441406</ele>
        <time>2013-04-21T10:14:15Z</time>
      </trkpt>
      <trkpt lat="44.15604" lon="3.1474">
        <ele>762.80004882812</ele>
        <time>2013-04-21T10:14:16Z</time>
      </trkpt>
      <trkpt lat="44.15609" lon="3.14743">
        <ele>762.40002441406</ele>
        <time>2013-04-21T10:14:17Z</time>
      </trkpt>
      <trkpt lat="44.15614" lon="3.14741">
        <ele>762.40002441406</ele>
        <time>2013-04-21T10:14:18Z</time>
      </trkpt>
      <trkpt lat="44.15618" lon="3.14735">
        <ele>762</ele>
        <time>2013-04-21T10:14:19Z</time>
      </trkpt>
      <trkpt lat="44.15619" lon="3.14728">
        <ele>761.59997558594</ele>
        <time>2013-04-21T10:14:20Z</time>
      </trkpt>
      <trkpt lat="44.1562" lon="3.14722">
        <ele>761.19995117188</ele>
        <time>2013-04-21T10:14:21Z</time>
      </trkpt>
      <trkpt lat="44.1562" lon="3.14715">
        <ele>760.80004882812</ele>
        <time>2013-04-21T10:14:22Z</time>
      </trkpt>
      <trkpt lat="44.15621" lon="3.14708">
        <ele>760</ele>
        <time>2013-04-21T10:14:23Z</time>
      </trkpt>
      <trkpt lat="44.15621" lon="3.14701">
        <ele>759.40002441406</ele>
        <time>2013-04-21T10:14:24Z</time>
      </trkpt>
      <trkpt lat="44.1562" lon="3.14693">
        <ele>759</ele>
        <time>2013-04-21T10:14:25Z</time>
      </trkpt>
      <trkpt lat="44.15618" lon="3.14678">
        <ele>758</ele>
        <time>2013-04-21T10:14:26Z</time>
      </trkpt>
      <trkpt lat="44.15619" lon="3.1467">
        <ele>757.59997558594</ele>
        <time>2013-04-21T10:14:28Z</time>
      </trkpt>
      <trkpt lat="44.15622" lon="3.14662">
        <ele>757</ele>
        <time>2013-04-21T10:14:29Z</time>
      </trkpt>
      <trkpt lat="44.15626" lon="3.14657">
        <ele>756.59997558594</ele>
        <time>2013-04-21T10:14:30Z</time>
      </trkpt>
      <trkpt lat="44.15629" lon="3.14649">
        <ele>756</ele>
        <time>2013-04-21T10:14:31Z</time>
      </trkpt>
      <trkpt lat="44.15634" lon="3.14642">
        <ele>755.59997558594</ele>
        <time>2013-04-21T10:14:32Z</time>
      </trkpt>
      <trkpt lat="44.15638" lon="3.14636">
        <ele>755.19995117188</ele>
        <time>2013-04-21T10:14:33Z</time>
      </trkpt>
      <trkpt lat="44.15644" lon="3.14631">
        <ele>754.80004882812</ele>
        <time>2013-04-21T10:14:34Z</time>
      </trkpt>
      <trkpt lat="44.1565" lon="3.14626">
        <ele>754.19995117188</ele>
        <time>2013-04-21T10:14:35Z</time>
      </trkpt>
      <trkpt lat="44.15655" lon="3.14622">
        <ele>753.80004882812</ele>
        <time>2013-04-21T10:14:36Z</time>
      </trkpt>
      <trkpt lat="44.15664" lon="3.14616">
        <ele>753.80004882812</ele>
        <time>2013-04-21T10:14:38Z</time>
      </trkpt>
      <trkpt lat="44.1567" lon="3.14616">
        <ele>753.80004882812</ele>
        <time>2013-04-21T10:14:39Z</time>
      </trkpt>
      <trkpt lat="44.15687" lon="3.14618">
        <ele>753.80004882812</ele>
        <time>2013-04-21T10:14:42Z</time>
      </trkpt>
      <trkpt lat="44.15705" lon="3.14608">
        <ele>753.80004882812</ele>
        <time>2013-04-21T10:14:46Z</time>
      </trkpt>
      <trkpt lat="44.1571" lon="3.14606">
        <ele>753.80004882812</ele>
        <time>2013-04-21T10:14:47Z</time>
      </trkpt>
      <trkpt lat="44.15714" lon="3.14603">
        <ele>753.80004882812</ele>
        <time>2013-04-21T10:14:48Z</time>
      </trkpt>
      <trkpt lat="44.15726" lon="3.14588">
        <ele>753.80004882812</ele>
        <time>2013-04-21T10:14:51Z</time>
      </trkpt>
      <trkpt lat="44.15733" lon="3.14579">
        <ele>753.80004882812</ele>
        <time>2013-04-21T10:14:53Z</time>
      </trkpt>
      <trkpt lat="44.15743" lon="3.14577">
        <ele>753.80004882812</ele>
        <time>2013-04-21T10:14:55Z</time>
      </trkpt>
      <trkpt lat="44.15762" lon="3.14559">
        <ele>753.40002441406</ele>
        <time>2013-04-21T10:14:59Z</time>
      </trkpt>
      <trkpt lat="44.15767" lon="3.14556">
        <ele>752.80004882812</ele>
        <time>2013-04-21T10:15:00Z</time>
      </trkpt>
      <trkpt lat="44.15771" lon="3.14549">
        <ele>752.40002441406</ele>
        <time>2013-04-21T10:15:01Z</time>
      </trkpt>
      <trkpt lat="44.15775" lon="3.14543">
        <ele>751.80004882812</ele>
        <time>2013-04-21T10:15:02Z</time>
      </trkpt>
      <trkpt lat="44.15779" lon="3.14538">
        <ele>751.40002441406</ele>
        <time>2013-04-21T10:15:03Z</time>
      </trkpt>
      <trkpt lat="44.15796" lon="3.14533">
        <ele>751.40002441406</ele>
        <time>2013-04-21T10:15:06Z</time>
      </trkpt>
      <trkpt lat="44.15812" lon="3.1453">
        <ele>751.40002441406</ele>
        <time>2013-04-21T10:15:09Z</time>
      </trkpt>
      <trkpt lat="44.15818" lon="3.14527">
        <ele>751.40002441406</ele>
        <time>2013-04-21T10:15:10Z</time>
      </trkpt>
      <trkpt lat="44.15823" lon="3.14524">
        <ele>751.40002441406</ele>
        <time>2013-04-21T10:15:11Z</time>
      </trkpt>
      <trkpt lat="44.15834" lon="3.14517">
        <ele>751</ele>
        <time>2013-04-21T10:15:13Z</time>
      </trkpt>
      <trkpt lat="44.15839" lon="3.14516">
        <ele>750.40002441406</ele>
        <time>2013-04-21T10:15:14Z</time>
      </trkpt>
      <trkpt lat="44.15845" lon="3.14514">
        <ele>750</ele>
        <time>2013-04-21T10:15:15Z</time>
      </trkpt>
      <trkpt lat="44.15852" lon="3.14515">
        <ele>749.59997558594</ele>
        <time>2013-04-21T10:15:16Z</time>
      </trkpt>
      <trkpt lat="44.15858" lon="3.14516">
        <ele>749.19995117188</ele>
        <time>2013-04-21T10:15:17Z</time>
      </trkpt>
      <trkpt lat="44.15864" lon="3.14515">
        <ele>749.19995117188</ele>
        <time>2013-04-21T10:15:18Z</time>
      </trkpt>
      <trkpt lat="44.15871" lon="3.14517">
        <ele>749.19995117188</ele>
        <time>2013-04-21T10:15:19Z</time>
      </trkpt>
      <trkpt lat="44.15884" lon="3.14515">
        <ele>749.19995117188</ele>
        <time>2013-04-21T10:15:21Z</time>
      </trkpt>
      <trkpt lat="44.1589" lon="3.14516">
        <ele>748.80004882812</ele>
        <time>2013-04-21T10:15:22Z</time>
      </trkpt>
      <trkpt lat="44.15896" lon="3.14518">
        <ele>748.19995117188</ele>
        <time>2013-04-21T10:15:23Z</time>
      </trkpt>
      <trkpt lat="44.15903" lon="3.14519">
        <ele>747.80004882812</ele>
        <time>2013-04-21T10:15:24Z</time>
      </trkpt>
      <trkpt lat="44.15909" lon="3.14518">
        <ele>747.40002441406</ele>
        <time>2013-04-21T10:15:25Z</time>
      </trkpt>
      <trkpt lat="44.15914" lon="3.14517">
        <ele>747</ele>
        <time>2013-04-21T10:15:26Z</time>
      </trkpt>
      <trkpt lat="44.15942" lon="3.14507">
        <ele>747</ele>
        <time>2013-04-21T10:15:31Z</time>
      </trkpt>
      <trkpt lat="44.15958" lon="3.145">
        <ele>747</ele>
        <time>2013-04-21T10:15:35Z</time>
      </trkpt>
      <trkpt lat="44.15963" lon="3.145">
        <ele>747</ele>
        <time>2013-04-21T10:15:36Z</time>
      </trkpt>
      <trkpt lat="44.15982" lon="3.14495">
        <ele>747</ele>
        <time>2013-04-21T10:15:40Z</time>
      </trkpt>
      <trkpt lat="44.15991" lon="3.14495">
        <ele>747</ele>
        <time>2013-04-21T10:15:42Z</time>
      </trkpt>
      <trkpt lat="44.16" lon="3.14504">
        <ele>747</ele>
        <time>2013-04-21T10:15:44Z</time>
      </trkpt>
      <trkpt lat="44.16006" lon="3.14505">
        <ele>746.40002441406</ele>
        <time>2013-04-21T10:15:45Z</time>
      </trkpt>
      <trkpt lat="44.16012" lon="3.14505">
        <ele>746</ele>
        <time>2013-04-21T10:15:46Z</time>
      </trkpt>
      <trkpt lat="44.16018" lon="3.14504">
        <ele>745.40002441406</ele>
        <time>2013-04-21T10:15:47Z</time>
      </trkpt>
      <trkpt lat="44.16024" lon="3.14505">
        <ele>744.80004882812</ele>
        <time>2013-04-21T10:15:48Z</time>
      </trkpt>
      <trkpt lat="44.16031" lon="3.14505">
        <ele>744</ele>
        <time>2013-04-21T10:15:49Z</time>
      </trkpt>
      <trkpt lat="44.16037" lon="3.14505">
        <ele>743.40002441406</ele>
        <time>2013-04-21T10:15:50Z</time>
      </trkpt>
      <trkpt lat="44.16042" lon="3.14508">
        <ele>742.80004882812</ele>
        <time>2013-04-21T10:15:51Z</time>
      </trkpt>
      <trkpt lat="44.16048" lon="3.14512">
        <ele>742</ele>
        <time>2013-04-21T10:15:52Z</time>
      </trkpt>
      <trkpt lat="44.16054" lon="3.14512">
        <ele>741.59997558594</ele>
        <time>2013-04-21T10:15:53Z</time>
      </trkpt>
      <trkpt lat="44.16059" lon="3.14512">
        <ele>741</ele>
        <time>2013-04-21T10:15:54Z</time>
      </trkpt>
      <trkpt lat="44.16063" lon="3.14509">
        <ele>740.59997558594</ele>
        <time>2013-04-21T10:15:55Z</time>
      </trkpt>
      <trkpt lat="44.16067" lon="3.14502">
        <ele>740</ele>
        <time>2013-04-21T10:15:56Z</time>
      </trkpt>
      <trkpt lat="44.1607" lon="3.14497">
        <ele>739.59997558594</ele>
        <time>2013-04-21T10:15:57Z</time>
      </trkpt>
      <trkpt lat="44.16073" lon="3.14491">
        <ele>739.59997558594</ele>
        <time>2013-04-21T10:15:58Z</time>
      </trkpt>
      <trkpt lat="44.16075" lon="3.14487">
        <ele>739.19995117188</ele>
        <time>2013-04-21T10:15:59Z</time>
      </trkpt>
      <trkpt lat="44.16076" lon="3.14484">
        <ele>737.59997558594</ele>
        <time>2013-04-21T10:16:02Z</time>
      </trkpt>
      <trkpt lat="44.16078" lon="3.14481">
        <ele>737.59997558594</ele>
        <time>2013-04-21T10:16:29Z</time>
      </trkpt>
      <trkpt lat="44.16083" lon="3.14476">
        <ele>737.59997558594</ele>
        <time>2013-04-21T10:16:32Z</time>
      </trkpt>
      <trkpt lat="44.16097" lon="3.14471">
        <ele>737.59997558594</ele>
        <time>2013-04-21T10:16:37Z</time>
      </trkpt>
      <trkpt lat="44.16104" lon="3.1447">
        <ele>737</ele>
        <time>2013-04-21T10:16:39Z</time>
      </trkpt>
      <trkpt lat="44.16108" lon="3.1447">
        <ele>736.59997558594</ele>
        <time>2013-04-21T10:16:40Z</time>
      </trkpt>
      <trkpt lat="44.16112" lon="3.14468">
        <ele>736.19995117188</ele>
        <time>2013-04-21T10:16:41Z</time>
      </trkpt>
      <trkpt lat="44.16117" lon="3.14467">
        <ele>735.59997558594</ele>
        <time>2013-04-21T10:16:42Z</time>
      </trkpt>
      <trkpt lat="44.16122" lon="3.14465">
        <ele>735.19995117188</ele>
        <time>2013-04-21T10:16:43Z</time>
      </trkpt>
      <trkpt lat="44.16134" lon="3.14463">
        <ele>734.80004882812</ele>
        <time>2013-04-21T10:16:45Z</time>
      </trkpt>
      <trkpt lat="44.16139" lon="3.14464">
        <ele>734.40002441406</ele>
        <time>2013-04-21T10:16:46Z</time>
      </trkpt>
      <trkpt lat="44.16145" lon="3.14464">
        <ele>734</ele>
        <time>2013-04-21T10:16:47Z</time>
      </trkpt>
      <trkpt lat="44.1615" lon="3.14465">
        <ele>733.59997558594</ele>
        <time>2013-04-21T10:16:48Z</time>
      </trkpt>
      <trkpt lat="44.16154" lon="3.14465">
        <ele>733.19995117188</ele>
        <time>2013-04-21T10:16:49Z</time>
      </trkpt>
      <trkpt lat="44.16164" lon="3.14462">
        <ele>733.19995117188</ele>
        <time>2013-04-21T10:16:51Z</time>
      </trkpt>
      <trkpt lat="44.16168" lon="3.1446">
        <ele>733.19995117188</ele>
        <time>2013-04-21T10:16:52Z</time>
      </trkpt>
      <trkpt lat="44.1618" lon="3.14449">
        <ele>733.19995117188</ele>
        <time>2013-04-21T10:16:55Z</time>
      </trkpt>
      <trkpt lat="44.16201" lon="3.14437">
        <ele>732.80004882812</ele>
        <time>2013-04-21T10:16:59Z</time>
      </trkpt>
      <trkpt lat="44.16206" lon="3.14437">
        <ele>732.40002441406</ele>
        <time>2013-04-21T10:17:00Z</time>
      </trkpt>
      <trkpt lat="44.16211" lon="3.14435">
        <ele>732</ele>
        <time>2013-04-21T10:17:01Z</time>
      </trkpt>
      <trkpt lat="44.16215" lon="3.14432">
        <ele>731.59997558594</ele>
        <time>2013-04-21T10:17:02Z</time>
      </trkpt>
      <trkpt lat="44.1622" lon="3.14428">
        <ele>731.19995117188</ele>
        <time>2013-04-21T10:17:03Z</time>
      </trkpt>
      <trkpt lat="44.16225" lon="3.14426">
        <ele>731.19995117188</ele>
        <time>2013-04-21T10:17:04Z</time>
      </trkpt>
      <trkpt lat="44.16231" lon="3.14419">
        <ele>731.19995117188</ele>
        <time>2013-04-21T10:17:07Z</time>
      </trkpt>
      <trkpt lat="44.16241" lon="3.14412">
        <ele>731.19995117188</ele>
        <time>2013-04-21T10:17:11Z</time>
      </trkpt>
      <trkpt lat="44.16252" lon="3.14408">
        <ele>731.19995117188</ele>
        <time>2013-04-21T10:17:14Z</time>
      </trkpt>
      <trkpt lat="44.16263" lon="3.14408">
        <ele>731.19995117188</ele>
        <time>2013-04-21T10:17:17Z</time>
      </trkpt>
      <trkpt lat="44.16268" lon="3.14403">
        <ele>731.19995117188</ele>
        <time>2013-04-21T10:17:19Z</time>
      </trkpt>
      <trkpt lat="44.16271" lon="3.14401">
        <ele>731.19995117188</ele>
        <time>2013-04-21T10:17:20Z</time>
      </trkpt>
      <trkpt lat="44.16285" lon="3.144">
        <ele>731.19995117188</ele>
        <time>2013-04-21T10:17:24Z</time>
      </trkpt>
      <trkpt lat="44.16299" lon="3.14406">
        <ele>731.19995117188</ele>
        <time>2013-04-21T10:17:28Z</time>
      </trkpt>
      <trkpt lat="44.16308" lon="3.14412">
        <ele>731.19995117188</ele>
        <time>2013-04-21T10:17:31Z</time>
      </trkpt>
      <trkpt lat="44.16327" lon="3.1442">
        <ele>731.19995117188</ele>
        <time>2013-04-21T10:17:36Z</time>
      </trkpt>
      <trkpt lat="44.1634" lon="3.14419">
        <ele>731.19995117188</ele>
        <time>2013-04-21T10:17:39Z</time>
      </trkpt>
      <trkpt lat="44.16344" lon="3.14418">
        <ele>731.19995117188</ele>
        <time>2013-04-21T10:17:40Z</time>
      </trkpt>
      <trkpt lat="44.16363" lon="3.14407">
        <ele>731.19995117188</ele>
        <time>2013-04-21T10:17:45Z</time>
      </trkpt>
      <trkpt lat="44.16376" lon="3.14407">
        <ele>731.19995117188</ele>
        <time>2013-04-21T10:17:49Z</time>
      </trkpt>
      <trkpt lat="44.16382" lon="3.14398">
        <ele>731.19995117188</ele>
        <time>2013-04-21T10:17:52Z</time>
      </trkpt>
      <trkpt lat="44.1639" lon="3.14398">
        <ele>730.59997558594</ele>
        <time>2013-04-21T10:17:54Z</time>
      </trkpt>
      <trkpt lat="44.16394" lon="3.14398">
        <ele>730.19995117188</ele>
        <time>2013-04-21T10:17:55Z</time>
      </trkpt>
      <trkpt lat="44.164" lon="3.14399">
        <ele>729.40002441406</ele>
        <time>2013-04-21T10:17:57Z</time>
      </trkpt>
      <trkpt lat="44.16411" lon="3.14402">
        <ele>728.80004882812</ele>
        <time>2013-04-21T10:18:00Z</time>
      </trkpt>
      <trkpt lat="44.16424" lon="3.14401">
        <ele>728.80004882812</ele>
        <time>2013-04-21T10:18:04Z</time>
      </trkpt>
      <trkpt lat="44.16441" lon="3.14395">
        <ele>728.80004882812</ele>
        <time>2013-04-21T10:18:08Z</time>
      </trkpt>
      <trkpt lat="44.16446" lon="3.14392">
        <ele>728.80004882812</ele>
        <time>2013-04-21T10:18:09Z</time>
      </trkpt>
      <trkpt lat="44.1645" lon="3.1439">
        <ele>728.40002441406</ele>
        <time>2013-04-21T10:18:10Z</time>
      </trkpt>
      <trkpt lat="44.16453" lon="3.14388">
        <ele>728</ele>
        <time>2013-04-21T10:18:11Z</time>
      </trkpt>
      <trkpt lat="44.16457" lon="3.14387">
        <ele>727.59997558594</ele>
        <time>2013-04-21T10:18:12Z</time>
      </trkpt>
      <trkpt lat="44.16461" lon="3.14386">
        <ele>727.19995117188</ele>
        <time>2013-04-21T10:18:13Z</time>
      </trkpt>
      <trkpt lat="44.16466" lon="3.14385">
        <ele>726.80004882812</ele>
        <time>2013-04-21T10:18:14Z</time>
      </trkpt>
      <trkpt lat="44.16477" lon="3.14383">
        <ele>726.80004882812</ele>
        <time>2013-04-21T10:18:17Z</time>
      </trkpt>
      <trkpt lat="44.16482" lon="3.14386">
        <ele>726.80004882812</ele>
        <time>2013-04-21T10:18:21Z</time>
      </trkpt>
      <trkpt lat="44.16487" lon="3.14386">
        <ele>726.80004882812</ele>
        <time>2013-04-21T10:18:31Z</time>
      </trkpt>
      <trkpt lat="44.16493" lon="3.14384">
        <ele>725.80004882812</ele>
        <time>2013-04-21T10:18:33Z</time>
      </trkpt>
      <trkpt lat="44.16499" lon="3.14385">
        <ele>725</ele>
        <time>2013-04-21T10:18:35Z</time>
      </trkpt>
      <trkpt lat="44.16502" lon="3.1439">
        <ele>724.59997558594</ele>
        <time>2013-04-21T10:18:36Z</time>
      </trkpt>
      <trkpt lat="44.16506" lon="3.14392">
        <ele>724.19995117188</ele>
        <time>2013-04-21T10:18:37Z</time>
      </trkpt>
      <trkpt lat="44.1651" lon="3.14392">
        <ele>723.59997558594</ele>
        <time>2013-04-21T10:18:38Z</time>
      </trkpt>
      <trkpt lat="44.16516" lon="3.14393">
        <ele>722.80004882812</ele>
        <time>2013-04-21T10:18:40Z</time>
      </trkpt>
      <trkpt lat="44.1652" lon="3.14393">
        <ele>722.40002441406</ele>
        <time>2013-04-21T10:18:43Z</time>
      </trkpt>
      <trkpt lat="44.16522" lon="3.14396">
        <ele>722.40002441406</ele>
        <time>2013-04-21T10:20:07Z</time>
      </trkpt>
      <trkpt lat="44.16522" lon="3.14405">
        <ele>722</ele>
        <time>2013-04-21T10:20:09Z</time>
      </trkpt>
      <trkpt lat="44.1652" lon="3.14411">
        <ele>721</ele>
        <time>2013-04-21T10:20:11Z</time>
      </trkpt>
      <trkpt lat="44.16518" lon="3.1442">
        <ele>720</ele>
        <time>2013-04-21T10:20:13Z</time>
      </trkpt>
      <trkpt lat="44.16518" lon="3.14425">
        <ele>719.40002441406</ele>
        <time>2013-04-21T10:20:14Z</time>
      </trkpt>
      <trkpt lat="44.16518" lon="3.14431">
        <ele>718.59997558594</ele>
        <time>2013-04-21T10:20:15Z</time>
      </trkpt>
      <trkpt lat="44.16517" lon="3.14436">
        <ele>718</ele>
        <time>2013-04-21T10:20:16Z</time>
      </trkpt>
      <trkpt lat="44.16514" lon="3.14443">
        <ele>716.40002441406</ele>
        <time>2013-04-21T10:20:18Z</time>
      </trkpt>
      <trkpt lat="44.1651" lon="3.14447">
        <ele>715</ele>
        <time>2013-04-21T10:20:20Z</time>
      </trkpt>
      <trkpt lat="44.16511" lon="3.14452">
        <ele>713.59997558594</ele>
        <time>2013-04-21T10:20:22Z</time>
      </trkpt>
      <trkpt lat="44.16515" lon="3.14455">
        <ele>712.40002441406</ele>
        <time>2013-04-21T10:20:25Z</time>
      </trkpt>
      <trkpt lat="44.16522" lon="3.14452">
        <ele>711.19995117188</ele>
        <time>2013-04-21T10:20:27Z</time>
      </trkpt>
      <trkpt lat="44.16526" lon="3.1445">
        <ele>710.59997558594</ele>
        <time>2013-04-21T10:20:28Z</time>
      </trkpt>
      <trkpt lat="44.16531" lon="3.14448">
        <ele>710</ele>
        <time>2013-04-21T10:20:29Z</time>
      </trkpt>
      <trkpt lat="44.16537" lon="3.14448">
        <ele>709.40002441406</ele>
        <time>2013-04-21T10:20:30Z</time>
      </trkpt>
      <trkpt lat="44.16543" lon="3.14447">
        <ele>708.80004882812</ele>
        <time>2013-04-21T10:20:31Z</time>
      </trkpt>
      <trkpt lat="44.16548" lon="3.14447">
        <ele>708.19995117188</ele>
        <time>2013-04-21T10:20:32Z</time>
      </trkpt>
      <trkpt lat="44.16553" lon="3.14446">
        <ele>707.59997558594</ele>
        <time>2013-04-21T10:20:33Z</time>
      </trkpt>
      <trkpt lat="44.16558" lon="3.14444">
        <ele>706.40002441406</ele>
        <time>2013-04-21T10:20:34Z</time>
      </trkpt>
      <trkpt lat="44.16562" lon="3.14443">
        <ele>705.80004882812</ele>
        <time>2013-04-21T10:20:35Z</time>
      </trkpt>
      <trkpt lat="44.16565" lon="3.14442">
        <ele>705.40002441406</ele>
        <time>2013-04-21T10:20:36Z</time>
      </trkpt>
      <trkpt lat="44.1657" lon="3.14441">
        <ele>704.19995117188</ele>
        <time>2013-04-21T10:20:38Z</time>
      </trkpt>
      <trkpt lat="44.16574" lon="3.1444">
        <ele>702.59997558594</ele>
        <time>2013-04-21T10:20:41Z</time>
      </trkpt>
      <trkpt lat="44.16574" lon="3.14444">
        <ele>701.19995117188</ele>
        <time>2013-04-21T10:20:45Z</time>
      </trkpt>
      <trkpt lat="44.1657" lon="3.1445">
        <ele>700.19995117188</ele>
        <time>2013-04-21T10:20:47Z</time>
      </trkpt>
      <trkpt lat="44.16568" lon="3.14454">
        <ele>699.59997558594</ele>
        <time>2013-04-21T10:20:48Z</time>
      </trkpt>
      <trkpt lat="44.16565" lon="3.14458">
        <ele>699</ele>
        <time>2013-04-21T10:20:49Z</time>
      </trkpt>
      <trkpt lat="44.16562" lon="3.14462">
        <ele>698.59997558594</ele>
        <time>2013-04-21T10:20:50Z</time>
      </trkpt>
      <trkpt lat="44.16559" lon="3.14465">
        <ele>697.80004882812</ele>
        <time>2013-04-21T10:20:51Z</time>
      </trkpt>
      <trkpt lat="44.16555" lon="3.14471">
        <ele>696.40002441406</ele>
        <time>2013-04-21T10:20:53Z</time>
      </trkpt>
      <trkpt lat="44.16557" lon="3.14475">
        <ele>694.19995117188</ele>
        <time>2013-04-21T10:20:56Z</time>
      </trkpt>
      <trkpt lat="44.16562" lon="3.14473">
        <ele>693</ele>
        <time>2013-04-21T10:20:58Z</time>
      </trkpt>
      <trkpt lat="44.16568" lon="3.1447">
        <ele>691.19995117188</ele>
        <time>2013-04-21T10:21:00Z</time>
      </trkpt>
      <trkpt lat="44.16575" lon="3.14467">
        <ele>689.80004882812</ele>
        <time>2013-04-21T10:21:02Z</time>
      </trkpt>
      <trkpt lat="44.16581" lon="3.14465">
        <ele>688</ele>
        <time>2013-04-21T10:21:04Z</time>
      </trkpt>
      <trkpt lat="44.16587" lon="3.14464">
        <ele>686.40002441406</ele>
        <time>2013-04-21T10:21:06Z</time>
      </trkpt>
      <trkpt lat="44.16593" lon="3.14463">
        <ele>684.80004882812</ele>
        <time>2013-04-21T10:21:08Z</time>
      </trkpt>
      <trkpt lat="44.16599" lon="3.14462">
        <ele>683.19995117188</ele>
        <time>2013-04-21T10:21:10Z</time>
      </trkpt>
      <trkpt lat="44.16603" lon="3.14461">
        <ele>682.19995117188</ele>
        <time>2013-04-21T10:21:11Z</time>
      </trkpt>
      <trkpt lat="44.16607" lon="3.1446">
        <ele>681.40002441406</ele>
        <time>2013-04-21T10:21:12Z</time>
      </trkpt>
      <trkpt lat="44.16611" lon="3.14459">
        <ele>680.40002441406</ele>
        <time>2013-04-21T10:21:13Z</time>
      </trkpt>
      <trkpt lat="44.16618" lon="3.14457">
        <ele>678.80004882812</ele>
        <time>2013-04-21T10:21:15Z</time>
      </trkpt>
      <trkpt lat="44.16625" lon="3.14455">
        <ele>677</ele>
        <time>2013-04-21T10:21:17Z</time>
      </trkpt>
      <trkpt lat="44.16629" lon="3.14454">
        <ele>676.19995117188</ele>
        <time>2013-04-21T10:21:18Z</time>
      </trkpt>
      <trkpt lat="44.16632" lon="3.14453">
        <ele>675.19995117188</ele>
        <time>2013-04-21T10:21:19Z</time>
      </trkpt>
      <trkpt lat="44.16635" lon="3.14451">
        <ele>674.59997558594</ele>
        <time>2013-04-21T10:21:20Z</time>
      </trkpt>
      <trkpt lat="44.1664" lon="3.14449">
        <ele>673.80004882812</ele>
        <time>2013-04-21T10:21:21Z</time>
      </trkpt>
      <trkpt lat="44.16644" lon="3.14448">
        <ele>673</ele>
        <time>2013-04-21T10:21:22Z</time>
      </trkpt>
      <trkpt lat="44.1665" lon="3.14445">
        <ele>670.80004882812</ele>
        <time>2013-04-21T10:21:24Z</time>
      </trkpt>
      <trkpt lat="44.16654" lon="3.14442">
        <ele>670</ele>
        <time>2013-04-21T10:21:25Z</time>
      </trkpt>
      <trkpt lat="44.16658" lon="3.14439">
        <ele>669</ele>
        <time>2013-04-21T10:21:26Z</time>
      </trkpt>
      <trkpt lat="44.16661" lon="3.14435">
        <ele>668.19995117188</ele>
        <time>2013-04-21T10:21:27Z</time>
      </trkpt>
      <trkpt lat="44.16664" lon="3.14433">
        <ele>667.59997558594</ele>
        <time>2013-04-21T10:21:28Z</time>
      </trkpt>
      <trkpt lat="44.16668" lon="3.1443">
        <ele>666.80004882812</ele>
        <time>2013-04-21T10:21:29Z</time>
      </trkpt>
      <trkpt lat="44.16672" lon="3.14427">
        <ele>666</ele>
        <time>2013-04-21T10:21:30Z</time>
      </trkpt>
      <trkpt lat="44.16675" lon="3.14424">
        <ele>665.19995117188</ele>
        <time>2013-04-21T10:21:31Z</time>
      </trkpt>
      <trkpt lat="44.16678" lon="3.14422">
        <ele>664.40002441406</ele>
        <time>2013-04-21T10:21:32Z</time>
      </trkpt>
      <trkpt lat="44.16682" lon="3.1442">
        <ele>663.80004882812</ele>
        <time>2013-04-21T10:21:33Z</time>
      </trkpt>
      <trkpt lat="44.16686" lon="3.14417">
        <ele>663</ele>
        <time>2013-04-21T10:21:34Z</time>
      </trkpt>
      <trkpt lat="44.1669" lon="3.14415">
        <ele>662.19995117188</ele>
        <time>2013-04-21T10:21:35Z</time>
      </trkpt>
      <trkpt lat="44.16695" lon="3.14412">
        <ele>661.59997558594</ele>
        <time>2013-04-21T10:21:36Z</time>
      </trkpt>
      <trkpt lat="44.16699" lon="3.14409">
        <ele>660.80004882812</ele>
        <time>2013-04-21T10:21:37Z</time>
      </trkpt>
      <trkpt lat="44.16703" lon="3.14406">
        <ele>660.19995117188</ele>
        <time>2013-04-21T10:21:38Z</time>
      </trkpt>
      <trkpt lat="44.16706" lon="3.14404">
        <ele>659.40002441406</ele>
        <time>2013-04-21T10:21:39Z</time>
      </trkpt>
      <trkpt lat="44.16709" lon="3.14401">
        <ele>658.59997558594</ele>
        <time>2013-04-21T10:21:40Z</time>
      </trkpt>
      <trkpt lat="44.16715" lon="3.14395">
        <ele>657.19995117188</ele>
        <time>2013-04-21T10:21:42Z</time>
      </trkpt>
      <trkpt lat="44.16721" lon="3.14391">
        <ele>655.80004882812</ele>
        <time>2013-04-21T10:21:44Z</time>
      </trkpt>
      <trkpt lat="44.16724" lon="3.14387">
        <ele>655</ele>
        <time>2013-04-21T10:21:45Z</time>
      </trkpt>
      <trkpt lat="44.16727" lon="3.14383">
        <ele>654.19995117188</ele>
        <time>2013-04-21T10:21:46Z</time>
      </trkpt>
      <trkpt lat="44.1673" lon="3.14379">
        <ele>653.40002441406</ele>
        <time>2013-04-21T10:21:47Z</time>
      </trkpt>
      <trkpt lat="44.16732" lon="3.14373">
        <ele>651.80004882812</ele>
        <time>2013-04-21T10:21:48Z</time>
      </trkpt>
      <trkpt lat="44.16734" lon="3.14368">
        <ele>651.19995117188</ele>
        <time>2013-04-21T10:21:49Z</time>
      </trkpt>
      <trkpt lat="44.16735" lon="3.1436">
        <ele>650.40002441406</ele>
        <time>2013-04-21T10:21:50Z</time>
      </trkpt>
      <trkpt lat="44.16737" lon="3.14353">
        <ele>649.59997558594</ele>
        <time>2013-04-21T10:21:51Z</time>
      </trkpt>
      <trkpt lat="44.16738" lon="3.14346">
        <ele>649</ele>
        <time>2013-04-21T10:21:52Z</time>
      </trkpt>
      <trkpt lat="44.1674" lon="3.14341">
        <ele>648.19995117188</ele>
        <time>2013-04-21T10:21:53Z</time>
      </trkpt>
      <trkpt lat="44.16742" lon="3.14335">
        <ele>647.59997558594</ele>
        <time>2013-04-21T10:21:54Z</time>
      </trkpt>
      <trkpt lat="44.16744" lon="3.1433">
        <ele>646.80004882812</ele>
        <time>2013-04-21T10:21:55Z</time>
      </trkpt>
      <trkpt lat="44.16746" lon="3.14324">
        <ele>646.19995117188</ele>
        <time>2013-04-21T10:21:56Z</time>
      </trkpt>
      <trkpt lat="44.16748" lon="3.14319">
        <ele>645.40002441406</ele>
        <time>2013-04-21T10:21:57Z</time>
      </trkpt>
      <trkpt lat="44.1675" lon="3.14314">
        <ele>644.59997558594</ele>
        <time>2013-04-21T10:21:58Z</time>
      </trkpt>
      <trkpt lat="44.16752" lon="3.14306">
        <ele>643.19995117188</ele>
        <time>2013-04-21T10:22:00Z</time>
      </trkpt>
      <trkpt lat="44.16753" lon="3.14301">
        <ele>641.59997558594</ele>
        <time>2013-04-21T10:22:02Z</time>
      </trkpt>
      <trkpt lat="44.16756" lon="3.14296">
        <ele>639.59997558594</ele>
        <time>2013-04-21T10:22:05Z</time>
      </trkpt>
      <trkpt lat="44.16757" lon="3.14298">
        <ele>638.19995117188</ele>
        <time>2013-04-21T10:22:09Z</time>
      </trkpt>
      <trkpt lat="44.16758" lon="3.14306">
        <ele>637.19995117188</ele>
        <time>2013-04-21T10:22:11Z</time>
      </trkpt>
      <trkpt lat="44.16761" lon="3.14316">
        <ele>635.40002441406</ele>
        <time>2013-04-21T10:22:13Z</time>
      </trkpt>
      <trkpt lat="44.16763" lon="3.14322">
        <ele>634.80004882812</ele>
        <time>2013-04-21T10:22:14Z</time>
      </trkpt>
      <trkpt lat="44.16764" lon="3.14327">
        <ele>634</ele>
        <time>2013-04-21T10:22:15Z</time>
      </trkpt>
      <trkpt lat="44.16767" lon="3.14333">
        <ele>632.40002441406</ele>
        <time>2013-04-21T10:22:17Z</time>
      </trkpt>
      <trkpt lat="44.16769" lon="3.14339">
        <ele>630.80004882812</ele>
        <time>2013-04-21T10:22:19Z</time>
      </trkpt>
      <trkpt lat="44.16771" lon="3.14344">
        <ele>629.19995117188</ele>
        <time>2013-04-21T10:22:21Z</time>
      </trkpt>
      <trkpt lat="44.16773" lon="3.14351">
        <ele>627.59997558594</ele>
        <time>2013-04-21T10:22:23Z</time>
      </trkpt>
      <trkpt lat="44.16776" lon="3.1436">
        <ele>626</ele>
        <time>2013-04-21T10:22:25Z</time>
      </trkpt>
      <trkpt lat="44.16777" lon="3.14365">
        <ele>625.40002441406</ele>
        <time>2013-04-21T10:22:26Z</time>
      </trkpt>
      <trkpt lat="44.1678" lon="3.1437">
        <ele>624.59997558594</ele>
        <time>2013-04-21T10:22:27Z</time>
      </trkpt>
      <trkpt lat="44.16782" lon="3.14375">
        <ele>623.80004882812</ele>
        <time>2013-04-21T10:22:28Z</time>
      </trkpt>
      <trkpt lat="44.16783" lon="3.14381">
        <ele>623.19995117188</ele>
        <time>2013-04-21T10:22:29Z</time>
      </trkpt>
      <trkpt lat="44.16785" lon="3.14386">
        <ele>622.59997558594</ele>
        <time>2013-04-21T10:22:30Z</time>
      </trkpt>
      <trkpt lat="44.16786" lon="3.14394">
        <ele>621.19995117188</ele>
        <time>2013-04-21T10:22:32Z</time>
      </trkpt>
      <trkpt lat="44.16785" lon="3.144">
        <ele>619.80004882812</ele>
        <time>2013-04-21T10:22:34Z</time>
      </trkpt>
      <trkpt lat="44.16785" lon="3.14406">
        <ele>618.19995117188</ele>
        <time>2013-04-21T10:22:36Z</time>
      </trkpt>
      <trkpt lat="44.16784" lon="3.14411">
        <ele>615.59997558594</ele>
        <time>2013-04-21T10:22:39Z</time>
      </trkpt>
      <trkpt lat="44.16782" lon="3.14416">
        <ele>613.80004882812</ele>
        <time>2013-04-21T10:22:42Z</time>
      </trkpt>
      <trkpt lat="44.16779" lon="3.14422">
        <ele>612.59997558594</ele>
        <time>2013-04-21T10:22:44Z</time>
      </trkpt>
      <trkpt lat="44.16776" lon="3.14428">
        <ele>611.19995117188</ele>
        <time>2013-04-21T10:22:46Z</time>
      </trkpt>
      <trkpt lat="44.16774" lon="3.14435">
        <ele>610</ele>
        <time>2013-04-21T10:22:48Z</time>
      </trkpt>
      <trkpt lat="44.1677" lon="3.14444">
        <ele>608.80004882812</ele>
        <time>2013-04-21T10:22:50Z</time>
      </trkpt>
      <trkpt lat="44.16768" lon="3.14449">
        <ele>608.19995117188</ele>
        <time>2013-04-21T10:22:51Z</time>
      </trkpt>
      <trkpt lat="44.16764" lon="3.14456">
        <ele>607</ele>
        <time>2013-04-21T10:22:53Z</time>
      </trkpt>
      <trkpt lat="44.16762" lon="3.14461">
        <ele>606.19995117188</ele>
        <time>2013-04-21T10:22:54Z</time>
      </trkpt>
      <trkpt lat="44.16759" lon="3.14469">
        <ele>605</ele>
        <time>2013-04-21T10:22:56Z</time>
      </trkpt>
      <trkpt lat="44.16757" lon="3.14477">
        <ele>603.80004882812</ele>
        <time>2013-04-21T10:22:58Z</time>
      </trkpt>
      <trkpt lat="44.16756" lon="3.14487">
        <ele>602.40002441406</ele>
        <time>2013-04-21T10:23:00Z</time>
      </trkpt>
      <trkpt lat="44.16755" lon="3.14496">
        <ele>600.19995117188</ele>
        <time>2013-04-21T10:23:02Z</time>
      </trkpt>
      <trkpt lat="44.16754" lon="3.14503">
        <ele>599.40002441406</ele>
        <time>2013-04-21T10:23:04Z</time>
      </trkpt>
      <trkpt lat="44.16753" lon="3.14509">
        <ele>598.40002441406</ele>
        <time>2013-04-21T10:23:06Z</time>
      </trkpt>
      <trkpt lat="44.16751" lon="3.14514">
        <ele>597.59997558594</ele>
        <time>2013-04-21T10:23:09Z</time>
      </trkpt>
      <trkpt lat="44.16749" lon="3.1452">
        <ele>596.19995117188</ele>
        <time>2013-04-21T10:23:12Z</time>
      </trkpt>
      <trkpt lat="44.1675" lon="3.14527">
        <ele>595.19995117188</ele>
        <time>2013-04-21T10:23:15Z</time>
      </trkpt>
      <trkpt lat="44.16752" lon="3.14527">
        <ele>592</ele>
        <time>2013-04-21T10:23:36Z</time>
      </trkpt>
      <trkpt lat="44.16756" lon="3.14523">
        <ele>591.19995117188</ele>
        <time>2013-04-21T10:23:40Z</time>
      </trkpt>
      <trkpt lat="44.16759" lon="3.14519">
        <ele>590.40002441406</ele>
        <time>2013-04-21T10:23:42Z</time>
      </trkpt>
      <trkpt lat="44.16763" lon="3.14514">
        <ele>589.59997558594</ele>
        <time>2013-04-21T10:23:44Z</time>
      </trkpt>
      <trkpt lat="44.16767" lon="3.1451">
        <ele>588.80004882812</ele>
        <time>2013-04-21T10:23:46Z</time>
      </trkpt>
      <trkpt lat="44.16771" lon="3.14506">
        <ele>587.80004882812</ele>
        <time>2013-04-21T10:23:48Z</time>
      </trkpt>
      <trkpt lat="44.16776" lon="3.14501">
        <ele>586.59997558594</ele>
        <time>2013-04-21T10:23:50Z</time>
      </trkpt>
      <trkpt lat="44.16779" lon="3.14497">
        <ele>585.80004882812</ele>
        <time>2013-04-21T10:23:51Z</time>
      </trkpt>
      <trkpt lat="44.16782" lon="3.14492">
        <ele>584.40002441406</ele>
        <time>2013-04-21T10:23:52Z</time>
      </trkpt>
      <trkpt lat="44.16786" lon="3.14487">
        <ele>583.59997558594</ele>
        <time>2013-04-21T10:23:53Z</time>
      </trkpt>
      <trkpt lat="44.16789" lon="3.14484">
        <ele>583</ele>
        <time>2013-04-21T10:23:54Z</time>
      </trkpt>
      <trkpt lat="44.16795" lon="3.1448">
        <ele>582.40002441406</ele>
        <time>2013-04-21T10:23:56Z</time>
      </trkpt>
      <trkpt lat="44.16801" lon="3.14478">
        <ele>581.40002441406</ele>
        <time>2013-04-21T10:23:58Z</time>
      </trkpt>
      <trkpt lat="44.16807" lon="3.14474">
        <ele>580.19995117188</ele>
        <time>2013-04-21T10:24:00Z</time>
      </trkpt>
      <trkpt lat="44.16811" lon="3.14473">
        <ele>579.59997558594</ele>
        <time>2013-04-21T10:24:01Z</time>
      </trkpt>
      <trkpt lat="44.16814" lon="3.14472">
        <ele>579</ele>
        <time>2013-04-21T10:24:02Z</time>
      </trkpt>
      <trkpt lat="44.16819" lon="3.14472">
        <ele>578.40002441406</ele>
        <time>2013-04-21T10:24:03Z</time>
      </trkpt>
      <trkpt lat="44.16824" lon="3.14472">
        <ele>577.59997558594</ele>
        <time>2013-04-21T10:24:04Z</time>
      </trkpt>
      <trkpt lat="44.16829" lon="3.14473">
        <ele>577</ele>
        <time>2013-04-21T10:24:05Z</time>
      </trkpt>
      <trkpt lat="44.16835" lon="3.14473">
        <ele>576.40002441406</ele>
        <time>2013-04-21T10:24:06Z</time>
      </trkpt>
      <trkpt lat="44.16842" lon="3.14472">
        <ele>575.59997558594</ele>
        <time>2013-04-21T10:24:07Z</time>
      </trkpt>
      <trkpt lat="44.16847" lon="3.14472">
        <ele>575</ele>
        <time>2013-04-21T10:24:08Z</time>
      </trkpt>
      <trkpt lat="44.1685" lon="3.14471">
        <ele>574.19995117188</ele>
        <time>2013-04-21T10:24:09Z</time>
      </trkpt>
      <trkpt lat="44.16858" lon="3.1447">
        <ele>572.40002441406</ele>
        <time>2013-04-21T10:24:11Z</time>
      </trkpt>
      <trkpt lat="44.16862" lon="3.1447">
        <ele>571.80004882812</ele>
        <time>2013-04-21T10:24:12Z</time>
      </trkpt>
      <trkpt lat="44.16868" lon="3.14467">
        <ele>570.19995117188</ele>
        <time>2013-04-21T10:24:14Z</time>
      </trkpt>
      <trkpt lat="44.16871" lon="3.14466">
        <ele>569.40002441406</ele>
        <time>2013-04-21T10:24:15Z</time>
      </trkpt>
      <trkpt lat="44.16877" lon="3.1446">
        <ele>567.80004882812</ele>
        <time>2013-04-21T10:24:17Z</time>
      </trkpt>
      <trkpt lat="44.16883" lon="3.14456">
        <ele>566.80004882812</ele>
        <time>2013-04-21T10:24:19Z</time>
      </trkpt>
      <trkpt lat="44.16888" lon="3.14453">
        <ele>565.59997558594</ele>
        <time>2013-04-21T10:24:21Z</time>
      </trkpt>
      <trkpt lat="44.16892" lon="3.14448">
        <ele>564.40002441406</ele>
        <time>2013-04-21T10:24:23Z</time>
      </trkpt>
      <trkpt lat="44.16895" lon="3.1445">
        <ele>563</ele>
        <time>2013-04-21T10:24:26Z</time>
      </trkpt>
      <trkpt lat="44.16891" lon="3.14454">
        <ele>561.40002441406</ele>
        <time>2013-04-21T10:24:29Z</time>
      </trkpt>
      <trkpt lat="44.16887" lon="3.14458">
        <ele>560.19995117188</ele>
        <time>2013-04-21T10:24:31Z</time>
      </trkpt>
      <trkpt lat="44.16884" lon="3.14462">
        <ele>559.19995117188</ele>
        <time>2013-04-21T10:24:33Z</time>
      </trkpt>
      <trkpt lat="44.16882" lon="3.14469">
        <ele>558.19995117188</ele>
        <time>2013-04-21T10:24:35Z</time>
      </trkpt>
      <trkpt lat="44.16883" lon="3.14476">
        <ele>557.19995117188</ele>
        <time>2013-04-21T10:24:37Z</time>
      </trkpt>
      <trkpt lat="44.16888" lon="3.14473">
        <ele>555.40002441406</ele>
        <time>2013-04-21T10:24:40Z</time>
      </trkpt>
      <trkpt lat="44.16893" lon="3.14468">
        <ele>553.59997558594</ele>
        <time>2013-04-21T10:24:42Z</time>
      </trkpt>
      <trkpt lat="44.16898" lon="3.14465">
        <ele>552.19995117188</ele>
        <time>2013-04-21T10:24:44Z</time>
      </trkpt>
      <trkpt lat="44.16902" lon="3.14463">
        <ele>551</ele>
        <time>2013-04-21T10:24:46Z</time>
      </trkpt>
      <trkpt lat="44.16908" lon="3.14459">
        <ele>549.80004882812</ele>
        <time>2013-04-21T10:24:48Z</time>
      </trkpt>
      <trkpt lat="44.16912" lon="3.14455">
        <ele>548.59997558594</ele>
        <time>2013-04-21T10:24:50Z</time>
      </trkpt>
      <trkpt lat="44.16916" lon="3.1445">
        <ele>547.19995117188</ele>
        <time>2013-04-21T10:24:52Z</time>
      </trkpt>
      <trkpt lat="44.1692" lon="3.14442">
        <ele>546</ele>
        <time>2013-04-21T10:24:54Z</time>
      </trkpt>
      <trkpt lat="44.16922" lon="3.14437">
        <ele>545.59997558594</ele>
        <time>2013-04-21T10:24:55Z</time>
      </trkpt>
      <trkpt lat="44.16925" lon="3.14431">
        <ele>544.80004882812</ele>
        <time>2013-04-21T10:24:56Z</time>
      </trkpt>
      <trkpt lat="44.16928" lon="3.14425">
        <ele>544.19995117188</ele>
        <time>2013-04-21T10:24:57Z</time>
      </trkpt>
      <trkpt lat="44.1693" lon="3.14419">
        <ele>543.59997558594</ele>
        <time>2013-04-21T10:24:58Z</time>
      </trkpt>
      <trkpt lat="44.16932" lon="3.14412">
        <ele>542.80004882812</ele>
        <time>2013-04-21T10:24:59Z</time>
      </trkpt>
      <trkpt lat="44.16935" lon="3.14406">
        <ele>542</ele>
        <time>2013-04-21T10:25:00Z</time>
      </trkpt>
      <trkpt lat="44.16938" lon="3.144">
        <ele>541.19995117188</ele>
        <time>2013-04-21T10:25:01Z</time>
      </trkpt>
      <trkpt lat="44.1694" lon="3.14394">
        <ele>540.19995117188</ele>
        <time>2013-04-21T10:25:02Z</time>
      </trkpt>
      <trkpt lat="44.16943" lon="3.14388">
        <ele>539.40002441406</ele>
        <time>2013-04-21T10:25:03Z</time>
      </trkpt>
      <trkpt lat="44.16946" lon="3.14383">
        <ele>538.59997558594</ele>
        <time>2013-04-21T10:25:04Z</time>
      </trkpt>
      <trkpt lat="44.16948" lon="3.14378">
        <ele>537.80004882812</ele>
        <time>2013-04-21T10:25:05Z</time>
      </trkpt>
      <trkpt lat="44.1695" lon="3.14373">
        <ele>537</ele>
        <time>2013-04-21T10:25:06Z</time>
      </trkpt>
      <trkpt lat="44.16953" lon="3.14368">
        <ele>535.40002441406</ele>
        <time>2013-04-21T10:25:07Z</time>
      </trkpt>
      <trkpt lat="44.16955" lon="3.14363">
        <ele>534.80004882812</ele>
        <time>2013-04-21T10:25:08Z</time>
      </trkpt>
      <trkpt lat="44.16958" lon="3.14357">
        <ele>534.19995117188</ele>
        <time>2013-04-21T10:25:09Z</time>
      </trkpt>
      <trkpt lat="44.16961" lon="3.1435">
        <ele>533.40002441406</ele>
        <time>2013-04-21T10:25:10Z</time>
      </trkpt>
      <trkpt lat="44.16964" lon="3.14341">
        <ele>532.80004882812</ele>
        <time>2013-04-21T10:25:11Z</time>
      </trkpt>
      <trkpt lat="44.16968" lon="3.14333">
        <ele>531.80004882812</ele>
        <time>2013-04-21T10:25:12Z</time>
      </trkpt>
      <trkpt lat="44.16971" lon="3.14326">
        <ele>531</ele>
        <time>2013-04-21T10:25:13Z</time>
      </trkpt>
      <trkpt lat="44.16973" lon="3.14319">
        <ele>530.19995117188</ele>
        <time>2013-04-21T10:25:14Z</time>
      </trkpt>
      <trkpt lat="44.16975" lon="3.14312">
        <ele>529.19995117188</ele>
        <time>2013-04-21T10:25:15Z</time>
      </trkpt>
      <trkpt lat="44.16978" lon="3.14307">
        <ele>528.40002441406</ele>
        <time>2013-04-21T10:25:16Z</time>
      </trkpt>
      <trkpt lat="44.1698" lon="3.14302">
        <ele>528</ele>
        <time>2013-04-21T10:25:17Z</time>
      </trkpt>
      <trkpt lat="44.16981" lon="3.14294">
        <ele>527</ele>
        <time>2013-04-21T10:25:19Z</time>
      </trkpt>
      <trkpt lat="44.16979" lon="3.14288">
        <ele>526</ele>
        <time>2013-04-21T10:25:21Z</time>
      </trkpt>
      <trkpt lat="44.1698" lon="3.1428">
        <ele>524.80004882812</ele>
        <time>2013-04-21T10:25:23Z</time>
      </trkpt>
      <trkpt lat="44.16984" lon="3.14274">
        <ele>523.20001220703</ele>
        <time>2013-04-21T10:25:25Z</time>
      </trkpt>
      <trkpt lat="44.1699" lon="3.14272">
        <ele>521.59997558594</ele>
        <time>2013-04-21T10:25:27Z</time>
      </trkpt>
      <trkpt lat="44.17" lon="3.14273">
        <ele>521</ele>
        <time>2013-04-21T10:25:30Z</time>
      </trkpt>
      <trkpt lat="44.1701" lon="3.14279">
        <ele>521</ele>
        <time>2013-04-21T10:25:33Z</time>
      </trkpt>
      <trkpt lat="44.17022" lon="3.14291">
        <ele>521</ele>
        <time>2013-04-21T10:25:36Z</time>
      </trkpt>
      <trkpt lat="44.17027" lon="3.14294">
        <ele>521</ele>
        <time>2013-04-21T10:25:37Z</time>
      </trkpt>
      <trkpt lat="44.17041" lon="3.14293">
        <ele>521</ele>
        <time>2013-04-21T10:25:40Z</time>
      </trkpt>
      <trkpt lat="44.17053" lon="3.14286">
        <ele>521</ele>
        <time>2013-04-21T10:25:43Z</time>
      </trkpt>
      <trkpt lat="44.17061" lon="3.14282">
        <ele>521</ele>
        <time>2013-04-21T10:25:45Z</time>
      </trkpt>
      <trkpt lat="44.17081" lon="3.14271">
        <ele>521</ele>
        <time>2013-04-21T10:25:50Z</time>
      </trkpt>
      <trkpt lat="44.17085" lon="3.1427">
        <ele>521</ele>
        <time>2013-04-21T10:25:51Z</time>
      </trkpt>
      <trkpt lat="44.17094" lon="3.14267">
        <ele>520.59997558594</ele>
        <time>2013-04-21T10:25:53Z</time>
      </trkpt>
      <trkpt lat="44.17099" lon="3.14265">
        <ele>520.20001220703</ele>
        <time>2013-04-21T10:25:54Z</time>
      </trkpt>
      <trkpt lat="44.17104" lon="3.14263">
        <ele>519.79998779297</ele>
        <time>2013-04-21T10:25:55Z</time>
      </trkpt>
      <trkpt lat="44.17109" lon="3.14261">
        <ele>518.20001220703</ele>
        <time>2013-04-21T10:25:56Z</time>
      </trkpt>
      <trkpt lat="44.17114" lon="3.14258">
        <ele>517.59997558594</ele>
        <time>2013-04-21T10:25:57Z</time>
      </trkpt>
      <trkpt lat="44.17119" lon="3.14255">
        <ele>516.59997558594</ele>
        <time>2013-04-21T10:25:58Z</time>
      </trkpt>
      <trkpt lat="44.17124" lon="3.14251">
        <ele>515.79998779297</ele>
        <time>2013-04-21T10:25:59Z</time>
      </trkpt>
      <trkpt lat="44.17129" lon="3.14248">
        <ele>515</ele>
        <time>2013-04-21T10:26:00Z</time>
      </trkpt>
      <trkpt lat="44.17132" lon="3.14246">
        <ele>514.20001220703</ele>
        <time>2013-04-21T10:26:01Z</time>
      </trkpt>
      <trkpt lat="44.17137" lon="3.14241">
        <ele>513</ele>
        <time>2013-04-21T10:26:03Z</time>
      </trkpt>
      <trkpt lat="44.17141" lon="3.14236">
        <ele>511.79998779297</ele>
        <time>2013-04-21T10:26:05Z</time>
      </trkpt>
      <trkpt lat="44.1715" lon="3.14222">
        <ele>510.79998779297</ele>
        <time>2013-04-21T10:26:10Z</time>
      </trkpt>
      <trkpt lat="44.17155" lon="3.14218">
        <ele>510</ele>
        <time>2013-04-21T10:26:12Z</time>
      </trkpt>
      <trkpt lat="44.1716" lon="3.14213">
        <ele>509</ele>
        <time>2013-04-21T10:26:14Z</time>
      </trkpt>
      <trkpt lat="44.17164" lon="3.14211">
        <ele>508.59997558594</ele>
        <time>2013-04-21T10:26:15Z</time>
      </trkpt>
      <trkpt lat="44.17169" lon="3.14209">
        <ele>507.40002441406</ele>
        <time>2013-04-21T10:26:17Z</time>
      </trkpt>
      <trkpt lat="44.17173" lon="3.14206">
        <ele>506.40002441406</ele>
        <time>2013-04-21T10:26:19Z</time>
      </trkpt>
      <trkpt lat="44.17177" lon="3.14203">
        <ele>504.79998779297</ele>
        <time>2013-04-21T10:26:21Z</time>
      </trkpt>
      <trkpt lat="44.17181" lon="3.14197">
        <ele>503.79998779297</ele>
        <time>2013-04-21T10:26:23Z</time>
      </trkpt>
      <trkpt lat="44.17185" lon="3.14192">
        <ele>502.79998779297</ele>
        <time>2013-04-21T10:26:25Z</time>
      </trkpt>
      <trkpt lat="44.17191" lon="3.14186">
        <ele>501.59997558594</ele>
        <time>2013-04-21T10:26:27Z</time>
      </trkpt>
      <trkpt lat="44.17194" lon="3.14182">
        <ele>500.79998779297</ele>
        <time>2013-04-21T10:26:28Z</time>
      </trkpt>
      <trkpt lat="44.17199" lon="3.14176">
        <ele>499.40002441406</ele>
        <time>2013-04-21T10:26:30Z</time>
      </trkpt>
      <trkpt lat="44.172" lon="3.1417">
        <ele>498.79998779297</ele>
        <time>2013-04-21T10:26:31Z</time>
      </trkpt>
      <trkpt lat="44.17203" lon="3.14163">
        <ele>497.40002441406</ele>
        <time>2013-04-21T10:26:33Z</time>
      </trkpt>
      <trkpt lat="44.17205" lon="3.14156">
        <ele>496</ele>
        <time>2013-04-21T10:26:35Z</time>
      </trkpt>
      <trkpt lat="44.17209" lon="3.14151">
        <ele>494.59997558594</ele>
        <time>2013-04-21T10:26:37Z</time>
      </trkpt>
      <trkpt lat="44.17212" lon="3.14146">
        <ele>493.20001220703</ele>
        <time>2013-04-21T10:26:39Z</time>
      </trkpt>
      <trkpt lat="44.17217" lon="3.14142">
        <ele>492</ele>
        <time>2013-04-21T10:26:41Z</time>
      </trkpt>
      <trkpt lat="44.17221" lon="3.14138">
        <ele>491</ele>
        <time>2013-04-21T10:26:43Z</time>
      </trkpt>
      <trkpt lat="44.17226" lon="3.14135">
        <ele>490</ele>
        <time>2013-04-21T10:26:45Z</time>
      </trkpt>
      <trkpt lat="44.17231" lon="3.14131">
        <ele>488.40002441406</ele>
        <time>2013-04-21T10:26:47Z</time>
      </trkpt>
      <trkpt lat="44.17237" lon="3.14127">
        <ele>487.40002441406</ele>
        <time>2013-04-21T10:26:49Z</time>
      </trkpt>
      <trkpt lat="44.17242" lon="3.14124">
        <ele>486</ele>
        <time>2013-04-21T10:26:51Z</time>
      </trkpt>
      <trkpt lat="44.17249" lon="3.14122">
        <ele>484.59997558594</ele>
        <time>2013-04-21T10:26:53Z</time>
      </trkpt>
      <trkpt lat="44.17253" lon="3.14121">
        <ele>483.20001220703</ele>
        <time>2013-04-21T10:26:55Z</time>
      </trkpt>
      <trkpt lat="44.17258" lon="3.14119">
        <ele>481.79998779297</ele>
        <time>2013-04-21T10:26:57Z</time>
      </trkpt>
      <trkpt lat="44.17262" lon="3.14118">
        <ele>480.59997558594</ele>
        <time>2013-04-21T10:27:01Z</time>
      </trkpt>
      <trkpt lat="44.17266" lon="3.14116">
        <ele>478</ele>
        <time>2013-04-21T10:27:10Z</time>
      </trkpt>
      <trkpt lat="44.1727" lon="3.14115">
        <ele>476.79998779297</ele>
        <time>2013-04-21T10:27:13Z</time>
      </trkpt>
      <trkpt lat="44.17274" lon="3.14114">
        <ele>475.20001220703</ele>
        <time>2013-04-21T10:27:16Z</time>
      </trkpt>
      <trkpt lat="44.17278" lon="3.14114">
        <ele>474.20001220703</ele>
        <time>2013-04-21T10:27:18Z</time>
      </trkpt>
      <trkpt lat="44.17283" lon="3.14112">
        <ele>473.20001220703</ele>
        <time>2013-04-21T10:27:20Z</time>
      </trkpt>
      <trkpt lat="44.17289" lon="3.1411">
        <ele>472</ele>
        <time>2013-04-21T10:27:22Z</time>
      </trkpt>
      <trkpt lat="44.17294" lon="3.14107">
        <ele>470.59997558594</ele>
        <time>2013-04-21T10:27:24Z</time>
      </trkpt>
      <trkpt lat="44.17299" lon="3.14102">
        <ele>469</ele>
        <time>2013-04-21T10:27:26Z</time>
      </trkpt>
      <trkpt lat="44.17302" lon="3.14099">
        <ele>468</ele>
        <time>2013-04-21T10:27:27Z</time>
      </trkpt>
      <trkpt lat="44.17307" lon="3.14094">
        <ele>466.40002441406</ele>
        <time>2013-04-21T10:27:29Z</time>
      </trkpt>
      <trkpt lat="44.17311" lon="3.14091">
        <ele>464.59997558594</ele>
        <time>2013-04-21T10:27:31Z</time>
      </trkpt>
      <trkpt lat="44.17315" lon="3.14088">
        <ele>463.20001220703</ele>
        <time>2013-04-21T10:27:33Z</time>
      </trkpt>
      <trkpt lat="44.17319" lon="3.14086">
        <ele>460.79998779297</ele>
        <time>2013-04-21T10:27:35Z</time>
      </trkpt>
      <trkpt lat="44.17324" lon="3.14082">
        <ele>459.40002441406</ele>
        <time>2013-04-21T10:27:37Z</time>
      </trkpt>
      <trkpt lat="44.1733" lon="3.14078">
        <ele>458</ele>
        <time>2013-04-21T10:27:39Z</time>
      </trkpt>
      <trkpt lat="44.17335" lon="3.14072">
        <ele>456.59997558594</ele>
        <time>2013-04-21T10:27:41Z</time>
      </trkpt>
      <trkpt lat="44.17339" lon="3.1407">
        <ele>456</ele>
        <time>2013-04-21T10:27:42Z</time>
      </trkpt>
      <trkpt lat="44.17342" lon="3.14067">
        <ele>455.40002441406</ele>
        <time>2013-04-21T10:27:43Z</time>
      </trkpt>
      <trkpt lat="44.17346" lon="3.14066">
        <ele>454.79998779297</ele>
        <time>2013-04-21T10:27:44Z</time>
      </trkpt>
      <trkpt lat="44.1735" lon="3.14065">
        <ele>454.20001220703</ele>
        <time>2013-04-21T10:27:45Z</time>
      </trkpt>
      <trkpt lat="44.17354" lon="3.14064">
        <ele>453.40002441406</ele>
        <time>2013-04-21T10:27:46Z</time>
      </trkpt>
      <trkpt lat="44.17358" lon="3.14063">
        <ele>452.59997558594</ele>
        <time>2013-04-21T10:27:47Z</time>
      </trkpt>
      <trkpt lat="44.17365" lon="3.14061">
        <ele>451</ele>
        <time>2013-04-21T10:27:49Z</time>
      </trkpt>
      <trkpt lat="44.1737" lon="3.1406">
        <ele>450.20001220703</ele>
        <time>2013-04-21T10:27:50Z</time>
      </trkpt>
      <trkpt lat="44.17374" lon="3.14058">
        <ele>449.20001220703</ele>
        <time>2013-04-21T10:27:51Z</time>
      </trkpt>
      <trkpt lat="44.17378" lon="3.14057">
        <ele>448.40002441406</ele>
        <time>2013-04-21T10:27:52Z</time>
      </trkpt>
      <trkpt lat="44.17382" lon="3.14057">
        <ele>447.40002441406</ele>
        <time>2013-04-21T10:27:53Z</time>
      </trkpt>
      <trkpt lat="44.17388" lon="3.14056">
        <ele>445.59997558594</ele>
        <time>2013-04-21T10:27:55Z</time>
      </trkpt>
      <trkpt lat="44.17393" lon="3.14052">
        <ele>444</ele>
        <time>2013-04-21T10:27:57Z</time>
      </trkpt>
      <trkpt lat="44.17401" lon="3.14052">
        <ele>442.40002441406</ele>
        <time>2013-04-21T10:27:59Z</time>
      </trkpt>
      <trkpt lat="44.17405" lon="3.14053">
        <ele>440.59997558594</ele>
        <time>2013-04-21T10:28:00Z</time>
      </trkpt>
      <trkpt lat="44.17409" lon="3.14053">
        <ele>439.79998779297</ele>
        <time>2013-04-21T10:28:01Z</time>
      </trkpt>
      <trkpt lat="44.17414" lon="3.14052">
        <ele>438</ele>
        <time>2013-04-21T10:28:03Z</time>
      </trkpt>
      <trkpt lat="44.1742" lon="3.14049">
        <ele>436.59997558594</ele>
        <time>2013-04-21T10:28:05Z</time>
      </trkpt>
      <trkpt lat="44.17424" lon="3.14048">
        <ele>436</ele>
        <time>2013-04-21T10:28:06Z</time>
      </trkpt>
      <trkpt lat="44.1743" lon="3.14048">
        <ele>434.59997558594</ele>
        <time>2013-04-21T10:28:08Z</time>
      </trkpt>
      <trkpt lat="44.17434" lon="3.14048">
        <ele>434</ele>
        <time>2013-04-21T10:28:09Z</time>
      </trkpt>
      <trkpt lat="44.17437" lon="3.1405">
        <ele>434</ele>
        <time>2013-04-21T10:28:10Z</time>
      </trkpt>
      <trkpt lat="44.17443" lon="3.14052">
        <ele>432.79998779297</ele>
        <time>2013-04-21T10:28:12Z</time>
      </trkpt>
      <trkpt lat="44.1745" lon="3.14051">
        <ele>431.79998779297</ele>
        <time>2013-04-21T10:28:14Z</time>
      </trkpt>
      <trkpt lat="44.17454" lon="3.14049">
        <ele>431.20001220703</ele>
        <time>2013-04-21T10:28:15Z</time>
      </trkpt>
      <trkpt lat="44.17458" lon="3.14047">
        <ele>430.40002441406</ele>
        <time>2013-04-21T10:28:16Z</time>
      </trkpt>
      <trkpt lat="44.17462" lon="3.14042">
        <ele>428.79998779297</ele>
        <time>2013-04-21T10:28:18Z</time>
      </trkpt>
      <trkpt lat="44.17466" lon="3.14037">
        <ele>427.20001220703</ele>
        <time>2013-04-21T10:28:20Z</time>
      </trkpt>
      <trkpt lat="44.17467" lon="3.14031">
        <ele>425.79998779297</ele>
        <time>2013-04-21T10:28:22Z</time>
      </trkpt>
      <trkpt lat="44.1747" lon="3.14027">
        <ele>423.59997558594</ele>
        <time>2013-04-21T10:28:25Z</time>
      </trkpt>
      <trkpt lat="44.17472" lon="3.14024">
        <ele>422.59997558594</ele>
        <time>2013-04-21T10:28:27Z</time>
      </trkpt>
      <trkpt lat="44.17477" lon="3.14022">
        <ele>421.79998779297</ele>
        <time>2013-04-21T10:28:29Z</time>
      </trkpt>
      <trkpt lat="44.17483" lon="3.1402">
        <ele>420.59997558594</ele>
        <time>2013-04-21T10:28:31Z</time>
      </trkpt>
      <trkpt lat="44.17488" lon="3.14017">
        <ele>419.40002441406</ele>
        <time>2013-04-21T10:28:33Z</time>
      </trkpt>
      <trkpt lat="44.17492" lon="3.14016">
        <ele>418</ele>
        <time>2013-04-21T10:28:35Z</time>
      </trkpt>
      <trkpt lat="44.17497" lon="3.14018">
        <ele>416.59997558594</ele>
        <time>2013-04-21T10:28:37Z</time>
      </trkpt>
      <trkpt lat="44.17503" lon="3.14022">
        <ele>415.40002441406</ele>
        <time>2013-04-21T10:28:39Z</time>
      </trkpt>
      <trkpt lat="44.17507" lon="3.14023">
        <ele>414.59997558594</ele>
        <time>2013-04-21T10:28:40Z</time>
      </trkpt>
      <trkpt lat="44.17511" lon="3.14021">
        <ele>414</ele>
        <time>2013-04-21T10:28:41Z</time>
      </trkpt>
      <trkpt lat="44.17515" lon="3.14018">
        <ele>413.20001220703</ele>
        <time>2013-04-21T10:28:42Z</time>
      </trkpt>
      <trkpt lat="44.17519" lon="3.14016">
        <ele>412.40002441406</ele>
        <time>2013-04-21T10:28:43Z</time>
      </trkpt>
      <trkpt lat="44.17522" lon="3.14013">
        <ele>411.79998779297</ele>
        <time>2013-04-21T10:28:44Z</time>
      </trkpt>
      <trkpt lat="44.17527" lon="3.14004">
        <ele>411</ele>
        <time>2013-04-21T10:28:48Z</time>
      </trkpt>
      <trkpt lat="44.17537" lon="3.13988">
        <ele>411</ele>
        <time>2013-04-21T10:28:53Z</time>
      </trkpt>
      <trkpt lat="44.1754" lon="3.13984">
        <ele>411</ele>
        <time>2013-04-21T10:28:56Z</time>
      </trkpt>
      <trkpt lat="44.17541" lon="3.13977">
        <ele>411</ele>
        <time>2013-04-21T10:29:14Z</time>
      </trkpt>
      <trkpt lat="44.17545" lon="3.13964">
        <ele>410.59997558594</ele>
        <time>2013-04-21T10:29:17Z</time>
      </trkpt>
      <trkpt lat="44.17548" lon="3.1396">
        <ele>410.20001220703</ele>
        <time>2013-04-21T10:29:18Z</time>
      </trkpt>
      <trkpt lat="44.17551" lon="3.13956">
        <ele>409.79998779297</ele>
        <time>2013-04-21T10:29:19Z</time>
      </trkpt>
      <trkpt lat="44.17554" lon="3.13952">
        <ele>409.20001220703</ele>
        <time>2013-04-21T10:29:20Z</time>
      </trkpt>
      <trkpt lat="44.17558" lon="3.13947">
        <ele>408.40002441406</ele>
        <time>2013-04-21T10:29:21Z</time>
      </trkpt>
      <trkpt lat="44.1756" lon="3.1394">
        <ele>407.59997558594</ele>
        <time>2013-04-21T10:29:22Z</time>
      </trkpt>
      <trkpt lat="44.17562" lon="3.13934">
        <ele>406.79998779297</ele>
        <time>2013-04-21T10:29:23Z</time>
      </trkpt>
      <trkpt lat="44.17565" lon="3.13928">
        <ele>405.79998779297</ele>
        <time>2013-04-21T10:29:24Z</time>
      </trkpt>
      <trkpt lat="44.17568" lon="3.13922">
        <ele>404.79998779297</ele>
        <time>2013-04-21T10:29:25Z</time>
      </trkpt>
      <trkpt lat="44.17571" lon="3.13915">
        <ele>404</ele>
        <time>2013-04-21T10:29:26Z</time>
      </trkpt>
      <trkpt lat="44.17574" lon="3.13908">
        <ele>403</ele>
        <time>2013-04-21T10:29:27Z</time>
      </trkpt>
      <trkpt lat="44.17575" lon="3.139">
        <ele>402.20001220703</ele>
        <time>2013-04-21T10:29:28Z</time>
      </trkpt>
      <trkpt lat="44.17575" lon="3.13893">
        <ele>401.20001220703</ele>
        <time>2013-04-21T10:29:29Z</time>
      </trkpt>
      <trkpt lat="44.17576" lon="3.13886">
        <ele>400.20001220703</ele>
        <time>2013-04-21T10:29:30Z</time>
      </trkpt>
      <trkpt lat="44.17578" lon="3.13879">
        <ele>399.59997558594</ele>
        <time>2013-04-21T10:29:31Z</time>
      </trkpt>
      <trkpt lat="44.17579" lon="3.13872">
        <ele>398.40002441406</ele>
        <time>2013-04-21T10:29:33Z</time>
      </trkpt>
      <trkpt lat="44.17582" lon="3.13865">
        <ele>396.79998779297</ele>
        <time>2013-04-21T10:29:43Z</time>
      </trkpt>
      <trkpt lat="44.17585" lon="3.1386">
        <ele>395</ele>
        <time>2013-04-21T10:29:51Z</time>
      </trkpt>
      <trkpt lat="44.1759" lon="3.13856">
        <ele>395</ele>
        <time>2013-04-21T10:29:59Z</time>
      </trkpt>
      <trkpt lat="44.17592" lon="3.13851">
        <ele>395</ele>
        <time>2013-04-21T10:30:05Z</time>
      </trkpt>
      <trkpt lat="44.17594" lon="3.13846">
        <ele>395</ele>
        <time>2013-04-21T10:30:11Z</time>
      </trkpt>
      <trkpt lat="44.17594" lon="3.13839">
        <ele>395</ele>
        <time>2013-04-21T10:30:16Z</time>
      </trkpt>
      <trkpt lat="44.17599" lon="3.13837">
        <ele>394.59997558594</ele>
        <time>2013-04-21T10:30:20Z</time>
      </trkpt>
      <trkpt lat="44.17604" lon="3.13832">
        <ele>393</ele>
        <time>2013-04-21T10:30:26Z</time>
      </trkpt>
      <trkpt lat="44.17611" lon="3.13826">
        <ele>393</ele>
        <time>2013-04-21T10:30:32Z</time>
      </trkpt>
      <trkpt lat="44.17614" lon="3.1382">
        <ele>393</ele>
        <time>2013-04-21T10:30:38Z</time>
      </trkpt>
      <trkpt lat="44.17617" lon="3.13817">
        <ele>391</ele>
        <time>2013-04-21T10:30:45Z</time>
      </trkpt>
      <trkpt lat="44.17621" lon="3.13815">
        <ele>391</ele>
        <time>2013-04-21T10:30:52Z</time>
      </trkpt>
      <trkpt lat="44.17629" lon="3.13811">
        <ele>391</ele>
        <time>2013-04-21T10:30:57Z</time>
      </trkpt>
      <trkpt lat="44.17639" lon="3.13801">
        <ele>390.59997558594</ele>
        <time>2013-04-21T10:31:03Z</time>
      </trkpt>
      <trkpt lat="44.17641" lon="3.13796">
        <ele>389.59997558594</ele>
        <time>2013-04-21T10:31:05Z</time>
      </trkpt>
      <trkpt lat="44.17645" lon="3.1379">
        <ele>388.79998779297</ele>
        <time>2013-04-21T10:31:07Z</time>
      </trkpt>
      <trkpt lat="44.17652" lon="3.13778">
        <ele>388.20001220703</ele>
        <time>2013-04-21T10:31:10Z</time>
      </trkpt>
      <trkpt lat="44.17655" lon="3.13773">
        <ele>387.79998779297</ele>
        <time>2013-04-21T10:31:11Z</time>
      </trkpt>
      <trkpt lat="44.17659" lon="3.13768">
        <ele>387.40002441406</ele>
        <time>2013-04-21T10:31:12Z</time>
      </trkpt>
      <trkpt lat="44.17662" lon="3.13763">
        <ele>386.79998779297</ele>
        <time>2013-04-21T10:31:13Z</time>
      </trkpt>
      <trkpt lat="44.17664" lon="3.13757">
        <ele>386.40002441406</ele>
        <time>2013-04-21T10:31:14Z</time>
      </trkpt>
      <trkpt lat="44.17674" lon="3.13733">
        <ele>385.40002441406</ele>
        <time>2013-04-21T10:31:18Z</time>
      </trkpt>
      <trkpt lat="44.17675" lon="3.13726">
        <ele>385</ele>
        <time>2013-04-21T10:31:19Z</time>
      </trkpt>
      <trkpt lat="44.17677" lon="3.13719">
        <ele>384.59997558594</ele>
        <time>2013-04-21T10:31:20Z</time>
      </trkpt>
      <trkpt lat="44.17678" lon="3.13713">
        <ele>384</ele>
        <time>2013-04-21T10:31:21Z</time>
      </trkpt>
      <trkpt lat="44.1768" lon="3.13707">
        <ele>383.59997558594</ele>
        <time>2013-04-21T10:31:22Z</time>
      </trkpt>
      <trkpt lat="44.17682" lon="3.137">
        <ele>383.20001220703</ele>
        <time>2013-04-21T10:31:23Z</time>
      </trkpt>
      <trkpt lat="44.17685" lon="3.13693">
        <ele>382.59997558594</ele>
        <time>2013-04-21T10:31:24Z</time>
      </trkpt>
      <trkpt lat="44.17687" lon="3.13687">
        <ele>382.20001220703</ele>
        <time>2013-04-21T10:31:25Z</time>
      </trkpt>
      <trkpt lat="44.17689" lon="3.13681">
        <ele>381.79998779297</ele>
        <time>2013-04-21T10:31:26Z</time>
      </trkpt>
      <trkpt lat="44.1769" lon="3.13675">
        <ele>381.20001220703</ele>
        <time>2013-04-21T10:31:27Z</time>
      </trkpt>
      <trkpt lat="44.17692" lon="3.13669">
        <ele>380.79998779297</ele>
        <time>2013-04-21T10:31:28Z</time>
      </trkpt>
      <trkpt lat="44.17693" lon="3.13663">
        <ele>380.40002441406</ele>
        <time>2013-04-21T10:31:29Z</time>
      </trkpt>
      <trkpt lat="44.17695" lon="3.13657">
        <ele>380</ele>
        <time>2013-04-21T10:31:30Z</time>
      </trkpt>
      <trkpt lat="44.17698" lon="3.1365">
        <ele>379.40002441406</ele>
        <time>2013-04-21T10:31:31Z</time>
      </trkpt>
      <trkpt lat="44.17701" lon="3.13644">
        <ele>379</ele>
        <time>2013-04-21T10:31:32Z</time>
      </trkpt>
      <trkpt lat="44.17704" lon="3.13637">
        <ele>378.40002441406</ele>
        <time>2013-04-21T10:31:33Z</time>
      </trkpt>
      <trkpt lat="44.17707" lon="3.13631">
        <ele>378</ele>
        <time>2013-04-21T10:31:34Z</time>
      </trkpt>
      <trkpt lat="44.1771" lon="3.13624">
        <ele>377.40002441406</ele>
        <time>2013-04-21T10:31:35Z</time>
      </trkpt>
      <trkpt lat="44.1772" lon="3.13606">
        <ele>377.40002441406</ele>
        <time>2013-04-21T10:31:38Z</time>
      </trkpt>
      <trkpt lat="44.17723" lon="3.136">
        <ele>377</ele>
        <time>2013-04-21T10:31:39Z</time>
      </trkpt>
      <trkpt lat="44.17726" lon="3.13593">
        <ele>376.59997558594</ele>
        <time>2013-04-21T10:31:40Z</time>
      </trkpt>
      <trkpt lat="44.1773" lon="3.13586">
        <ele>376</ele>
        <time>2013-04-21T10:31:41Z</time>
      </trkpt>
      <trkpt lat="44.17733" lon="3.13578">
        <ele>375.59997558594</ele>
        <time>2013-04-21T10:31:42Z</time>
      </trkpt>
      <trkpt lat="44.17736" lon="3.1357">
        <ele>375</ele>
        <time>2013-04-21T10:31:43Z</time>
      </trkpt>
      <trkpt lat="44.17739" lon="3.13562">
        <ele>374.59997558594</ele>
        <time>2013-04-21T10:31:44Z</time>
      </trkpt>
      <trkpt lat="44.17741" lon="3.13554">
        <ele>374</ele>
        <time>2013-04-21T10:31:45Z</time>
      </trkpt>
      <trkpt lat="44.17743" lon="3.13546">
        <ele>373.59997558594</ele>
        <time>2013-04-21T10:31:46Z</time>
      </trkpt>
      <trkpt lat="44.17745" lon="3.13538">
        <ele>373</ele>
        <time>2013-04-21T10:31:47Z</time>
      </trkpt>
      <trkpt lat="44.17748" lon="3.13529">
        <ele>372.59997558594</ele>
        <time>2013-04-21T10:31:48Z</time>
      </trkpt>
      <trkpt lat="44.1775" lon="3.13519">
        <ele>372.59997558594</ele>
        <time>2013-04-21T10:31:49Z</time>
      </trkpt>
      <trkpt lat="44.17753" lon="3.13508">
        <ele>372</ele>
        <time>2013-04-21T10:31:50Z</time>
      </trkpt>
      <trkpt lat="44.17755" lon="3.13498">
        <ele>371.59997558594</ele>
        <time>2013-04-21T10:31:51Z</time>
      </trkpt>
      <trkpt lat="44.17757" lon="3.13488">
        <ele>371.20001220703</ele>
        <time>2013-04-21T10:31:52Z</time>
      </trkpt>
      <trkpt lat="44.17759" lon="3.13478">
        <ele>370.59997558594</ele>
        <time>2013-04-21T10:31:53Z</time>
      </trkpt>
      <trkpt lat="44.17762" lon="3.13469">
        <ele>370</ele>
        <time>2013-04-21T10:31:54Z</time>
      </trkpt>
      <trkpt lat="44.17765" lon="3.1346">
        <ele>369.59997558594</ele>
        <time>2013-04-21T10:31:55Z</time>
      </trkpt>
      <trkpt lat="44.17768" lon="3.13453">
        <ele>369</ele>
        <time>2013-04-21T10:31:56Z</time>
      </trkpt>
      <trkpt lat="44.17771" lon="3.13447">
        <ele>368.40002441406</ele>
        <time>2013-04-21T10:31:57Z</time>
      </trkpt>
      <trkpt lat="44.17774" lon="3.13443">
        <ele>368</ele>
        <time>2013-04-21T10:31:58Z</time>
      </trkpt>
      <trkpt lat="44.17779" lon="3.13442">
        <ele>368</ele>
        <time>2013-04-21T10:32:10Z</time>
      </trkpt>
    </trkseg>
  </trk>
</gpx>